createdAt,value
2023-03-04T00:01:13.884Z,51.96
2023-03-04T00:03:41.588Z,52.29
2023-03-04T00:06:09.444Z,52.44
2023-03-04T00:08:38.837Z,52.18
2023-03-04T00:11:06.654Z,52.44
2023-03-04T00:13:34.452Z,52.65
2023-03-04T00:16:02.283Z,52.09
2023-03-04T00:18:30.070Z,52.43
2023-03-04T00:20:57.783Z,52.91
2023-03-04T00:23:25.599Z,52.98
2023-03-04T00:25:54.737Z,53.12
2023-03-04T00:28:22.446Z,52.79
2023-03-04T00:30:50.227Z,53.00
2023-03-04T00:33:17.998Z,52.68
2023-03-04T00:35:45.819Z,52.35
2023-03-04T00:38:13.714Z,52.98
2023-03-04T00:40:41.539Z,52.70
2023-03-04T00:43:10.603Z,52.80
2023-03-04T00:45:38.540Z,53.08
2023-03-04T00:48:06.764Z,53.46
2023-03-04T00:50:34.562Z,53.03
2023-03-04T00:53:02.803Z,53.44
2023-03-04T00:55:30.473Z,53.67
2023-03-04T00:57:58.330Z,53.28
2023-03-04T01:00:27.884Z,53.53
2023-03-04T01:02:55.594Z,53.32
2023-03-04T01:05:23.480Z,53.03
2023-03-04T01:07:51.191Z,53.18
2023-03-04T01:10:19.262Z,53.97
2023-03-04T01:12:47.051Z,53.73
2023-03-04T01:15:15.590Z,53.46
2023-03-04T01:17:45.815Z,53.17
2023-03-04T01:20:14.502Z,53.46
2023-03-04T01:22:42.377Z,53.15
2023-03-04T01:25:11.463Z,53.60
2023-03-04T01:27:39.182Z,52.97
2023-03-04T01:30:08.316Z,53.96
2023-03-04T01:32:36.023Z,53.55
2023-03-04T01:35:05.635Z,53.96
2023-03-04T01:37:33.368Z,53.63
2023-03-04T01:40:01.140Z,53.29
2023-03-04T01:42:32.993Z,54.14
2023-03-04T01:45:00.798Z,53.79
2023-03-04T01:47:31.078Z,53.83
2023-03-04T01:49:59.849Z,54.52
2023-03-04T01:52:29.190Z,54.20
2023-03-04T01:54:57.192Z,54.15
2023-03-04T01:57:26.576Z,54.04
2023-03-04T02:00:19.804Z,53.58
2023-03-04T02:02:47.932Z,54.12
2023-03-04T02:05:16.095Z,53.95
2023-03-04T02:07:45.203Z,54.16
2023-03-04T02:10:13.617Z,54.17
2023-03-04T02:12:41.917Z,54.02
2023-03-04T02:15:10.402Z,53.39
2023-03-04T02:17:38.313Z,53.96
2023-03-04T02:20:18.378Z,54.33
2023-03-04T02:22:54.933Z,53.63
2023-03-04T02:25:29.393Z,53.61
2023-03-04T02:27:58.512Z,54.42
2023-03-04T02:30:26.431Z,53.52
2023-03-04T02:32:54.252Z,53.92
2023-03-04T02:35:22.827Z,54.31
2023-03-04T02:37:50.612Z,53.59
2023-03-04T02:40:24.764Z,54.76
2023-03-04T02:42:52.532Z,54.13
2023-03-04T02:45:38.628Z,54.42
2023-03-04T02:48:07.108Z,54.83
2023-03-04T02:50:37.817Z,54.65
2023-03-04T02:53:05.784Z,54.83
2023-03-04T02:55:33.927Z,54.29
2023-03-04T02:58:01.781Z,54.86
2023-03-04T03:00:29.866Z,54.32
2023-03-04T03:02:59.297Z,54.85
2023-03-04T03:05:29.878Z,54.82
2023-03-04T03:07:57.682Z,54.93
2023-03-04T03:10:25.508Z,54.83
2023-03-04T03:12:53.617Z,54.69
2023-03-04T03:15:21.924Z,54.73
2023-03-04T03:17:50.122Z,54.37
2023-03-04T03:20:19.714Z,54.32
2023-03-04T03:22:47.942Z,55.01
2023-03-04T03:25:17.448Z,54.99
2023-03-04T03:27:45.173Z,54.54
2023-03-04T03:30:15.126Z,54.88
2023-03-04T03:32:42.844Z,54.82
2023-03-04T03:35:11.165Z,54.62
2023-03-04T03:37:40.244Z,54.77
2023-03-04T03:40:09.132Z,54.46
2023-03-04T03:42:36.853Z,55.04
2023-03-04T03:45:05.124Z,55.20
2023-03-04T03:47:32.892Z,54.38
2023-03-04T03:50:00.639Z,55.14
2023-03-04T03:52:28.324Z,54.93
2023-03-04T03:54:57.432Z,54.72
2023-03-04T03:57:25.125Z,54.77
2023-03-04T03:59:52.845Z,55.23
2023-03-04T04:02:20.670Z,55.30
2023-03-04T04:04:48.456Z,55.37
2023-03-04T04:07:16.224Z,55.05
2023-03-04T04:09:43.918Z,55.49
2023-03-04T04:12:15.546Z,54.68
2023-03-04T04:14:43.535Z,54.99
2023-03-04T04:17:11.434Z,54.91
2023-03-04T04:19:40.735Z,55.05
2023-03-04T04:22:09.170Z,55.17
2023-03-04T04:24:37.039Z,54.97
2023-03-04T04:27:05.437Z,55.50
2023-03-04T04:29:34.495Z,55.35
2023-03-04T04:32:02.261Z,55.61
2023-03-04T04:34:29.967Z,55.81
2023-03-04T04:36:57.799Z,55.38
2023-03-04T04:39:25.527Z,55.51
2023-03-04T04:41:53.256Z,55.55
2023-03-04T04:44:20.945Z,55.75
2023-03-04T04:46:50.010Z,55.48
2023-03-04T04:49:17.725Z,55.17
2023-03-04T04:51:45.445Z,55.17
2023-03-04T04:54:15.290Z,55.22
2023-03-04T04:56:43.409Z,55.31
2023-03-04T04:59:11.161Z,55.11
2023-03-04T05:01:38.952Z,54.81
2023-03-04T05:04:08.013Z,54.69
2023-03-04T05:06:35.768Z,54.87
2023-03-04T05:09:04.352Z,55.32
2023-03-04T05:11:32.066Z,55.02
2023-03-04T05:13:59.843Z,55.24
2023-03-04T05:16:27.635Z,55.50
2023-03-04T05:18:55.381Z,55.14
2023-03-04T05:21:24.484Z,55.69
2023-03-04T05:23:52.256Z,54.92
2023-03-04T05:26:20.205Z,55.25
2023-03-04T05:28:48.206Z,55.03
2023-03-04T05:31:16.520Z,54.97
2023-03-04T05:33:44.548Z,55.44
2023-03-04T05:36:12.296Z,55.27
2023-03-04T05:38:41.480Z,54.98
2023-03-04T05:41:09.505Z,55.25
2023-03-04T05:43:42.657Z,54.84
2023-03-04T05:46:14.419Z,55.35
2023-03-04T05:48:42.350Z,55.17
2023-03-04T05:51:10.480Z,55.67
2023-03-04T05:53:39.978Z,55.31
2023-03-04T05:56:10.957Z,55.43
2023-03-04T05:58:38.937Z,55.44
2023-03-04T06:01:07.371Z,55.65
2023-03-04T06:03:35.142Z,55.22
2023-03-04T06:06:03.038Z,55.33
2023-03-04T06:08:30.802Z,55.15
2023-03-04T06:10:59.115Z,55.61
2023-03-04T06:13:29.059Z,55.13
2023-03-04T06:15:59.212Z,55.44
2023-03-04T06:18:28.413Z,55.76
2023-03-04T06:20:58.668Z,55.34
2023-03-04T06:23:26.509Z,55.60
2023-03-04T06:25:54.733Z,55.45
2023-03-04T06:28:23.156Z,55.36
2023-03-04T06:30:54.363Z,55.29
2023-03-04T06:33:22.283Z,55.57
2023-03-04T06:35:50.070Z,55.75
2023-03-04T06:38:17.793Z,55.62
2023-03-04T06:40:45.959Z,56.07
2023-03-04T06:43:13.704Z,56.32
2023-03-04T06:45:41.454Z,56.30
2023-03-04T06:48:10.567Z,56.39
2023-03-04T06:50:40.324Z,56.57
2023-03-04T06:53:08.112Z,56.22
2023-03-04T06:55:35.921Z,56.31
2023-03-04T06:58:03.746Z,56.84
2023-03-04T07:00:31.863Z,56.72
2023-03-04T07:02:59.810Z,56.47
2023-03-04T07:05:29.075Z,56.85
2023-03-04T07:07:56.913Z,57.44
2023-03-04T07:10:24.629Z,56.89
2023-03-04T07:12:52.350Z,56.74
2023-03-04T07:15:20.251Z,57.21
2023-03-04T07:17:48.015Z,57.16
2023-03-04T07:20:15.837Z,57.17
2023-03-04T07:22:45.070Z,57.17
2023-03-04T07:25:13.253Z,56.91
2023-03-04T07:27:41.041Z,57.68
2023-03-04T07:30:11.052Z,57.87
2023-03-04T07:32:38.897Z,57.55
2023-03-04T07:35:07.751Z,57.58
2023-03-04T07:37:35.481Z,57.98
2023-03-04T07:40:05.102Z,57.76
2023-03-04T07:42:32.850Z,57.97
2023-03-04T07:45:01.848Z,58.11
2023-03-04T07:47:29.692Z,58.12
2023-03-04T07:49:57.401Z,58.33
2023-03-04T07:52:25.109Z,57.74
2023-03-04T07:54:52.872Z,57.44
2023-03-04T07:57:22.010Z,57.81
2023-03-04T07:59:49.702Z,58.16
2023-03-04T08:02:17.485Z,58.58
2023-03-04T08:04:45.262Z,58.82
2023-03-04T08:07:13.018Z,58.29
2023-03-04T08:09:40.776Z,58.92
2023-03-04T08:12:08.694Z,58.23
2023-03-04T08:14:37.926Z,58.16
2023-03-04T08:17:05.670Z,57.44
2023-03-04T08:19:33.502Z,56.72
2023-03-04T08:22:01.668Z,55.85
2023-03-04T08:24:29.587Z,55.50
2023-03-04T08:26:57.462Z,54.79
2023-03-04T08:29:26.874Z,54.81
2023-03-04T08:31:56.728Z,55.47
2023-03-04T08:34:26.760Z,55.80
2023-03-04T08:36:54.828Z,56.00
2023-03-04T08:39:22.510Z,57.19
2023-03-04T08:41:50.611Z,56.69
2023-03-04T08:44:18.318Z,57.29
2023-03-04T08:46:46.287Z,58.19
2023-03-04T08:49:15.551Z,57.84
2023-03-04T08:51:45.196Z,57.94
2023-03-04T08:54:13.053Z,57.77
2023-03-04T08:56:41.832Z,58.13
2023-03-04T08:59:09.612Z,58.36
2023-03-04T09:01:37.420Z,58.20
2023-03-04T09:04:05.344Z,59.02
2023-03-04T09:06:34.458Z,58.00
2023-03-04T09:09:02.206Z,58.75
2023-03-04T09:11:29.958Z,59.29
2023-03-04T09:13:57.786Z,58.39
2023-03-04T09:16:25.793Z,58.35
2023-03-04T09:18:53.570Z,59.16
2023-03-04T09:21:21.289Z,59.50
2023-03-04T09:23:50.553Z,59.17
2023-03-04T09:26:22.145Z,59.24
2023-03-04T09:28:52.507Z,59.79
2023-03-04T09:31:20.859Z,59.52
2023-03-04T09:33:49.668Z,60.04
2023-03-04T09:36:17.585Z,59.28
2023-03-04T09:38:45.782Z,60.24
2023-03-04T09:41:20.060Z,59.68
2023-03-04T09:43:49.678Z,59.85
2023-03-04T09:46:23.564Z,60.21
2023-03-04T09:48:53.843Z,60.08
2023-03-04T09:51:24.582Z,59.65
2023-03-04T09:54:07.881Z,59.54
2023-03-04T09:56:39.930Z,59.78
2023-03-04T09:59:16.946Z,60.04
2023-03-04T10:01:49.532Z,60.00
2023-03-04T10:04:23.149Z,59.59
2023-03-04T10:06:54.606Z,59.77
2023-03-04T10:09:27.066Z,60.07
2023-03-04T10:12:04.096Z,59.86
2023-03-04T10:14:34.668Z,60.21
2023-03-04T10:17:09.847Z,59.52
2023-03-04T10:20:04.797Z,59.45
2023-03-04T10:22:37.283Z,60.25
2023-03-04T10:25:18.960Z,60.06
2023-03-04T10:27:52.732Z,60.32
2023-03-04T10:30:31.509Z,60.62
2023-03-04T10:32:59.359Z,60.68
2023-03-04T10:35:34.387Z,59.79
2023-03-04T10:38:04.613Z,59.46
2023-03-04T10:40:39.878Z,59.51
2023-03-04T10:43:15.708Z,60.14
2023-03-04T10:45:44.550Z,59.40
2023-03-04T10:48:21.388Z,59.57
2023-03-04T10:50:49.140Z,59.22
2023-03-04T10:53:33.357Z,59.58
2023-03-04T10:56:02.790Z,59.71
2023-03-04T10:58:31.911Z,58.65
2023-03-04T11:01:05.555Z,59.10
2023-03-04T11:03:36.728Z,58.70
2023-03-04T11:06:12.060Z,58.82
2023-03-04T11:08:41.024Z,58.78
2023-03-04T11:11:23.649Z,59.06
2023-03-04T11:13:57.328Z,58.79
2023-03-04T11:16:28.771Z,59.20
2023-03-04T11:19:01.512Z,59.31
2023-03-04T11:21:33.120Z,59.38
2023-03-04T11:24:04.769Z,59.90
2023-03-04T11:26:40.629Z,59.72
2023-03-04T11:29:16.965Z,59.51
2023-03-04T11:31:50.508Z,60.01
2023-03-04T11:34:35.657Z,59.51
2023-03-04T11:37:09.037Z,59.52
2023-03-04T11:39:39.539Z,59.66
2023-03-04T11:42:18.286Z,59.35
2023-03-04T11:44:47.390Z,59.20
2023-03-04T11:47:37.588Z,59.61
2023-03-04T11:50:16.533Z,59.07
2023-03-04T11:53:05.861Z,58.75
2023-03-04T11:55:41.745Z,57.71
2023-03-04T11:58:39.269Z,57.77
2023-03-04T12:01:10.563Z,58.39
2023-03-04T12:03:55.429Z,59.11
2023-03-04T12:06:33.072Z,58.85
2023-03-04T12:09:09.918Z,59.70
2023-03-04T12:11:47.315Z,59.66
2023-03-04T12:14:27.172Z,60.62
2023-03-04T12:17:20.509Z,61.27
2023-03-04T12:20:15.332Z,61.36
2023-03-04T12:22:46.162Z,61.67
2023-03-04T12:25:34.177Z,61.81
2023-03-04T12:28:13.865Z,62.47
2023-03-04T12:31:00.973Z,62.41
2023-03-04T12:33:39.872Z,62.46
2023-03-04T12:36:16.106Z,62.42
2023-03-04T12:39:01.490Z,62.06
2023-03-04T12:41:47.418Z,61.95
2023-03-04T12:44:18.168Z,61.72
2023-03-04T12:46:58.910Z,61.83
2023-03-04T12:49:47.499Z,61.55
2023-03-04T12:52:21.009Z,61.15
2023-03-04T12:54:55.464Z,61.68
2023-03-04T12:57:26.230Z,62.17
2023-03-04T13:00:01.269Z,61.88
2023-03-04T13:02:44.147Z,62.13
2023-03-04T13:05:30.709Z,61.61
2023-03-04T13:08:09.913Z,61.84
2023-03-04T13:10:37.776Z,61.99
2023-03-04T13:13:05.775Z,61.49
2023-03-04T13:15:38.891Z,62.04
2023-03-04T13:18:34.962Z,61.75
2023-03-04T13:21:23.923Z,61.64
2023-03-04T13:23:52.442Z,60.11
2023-03-04T13:26:24.681Z,60.01
2023-03-04T13:29:11.088Z,59.27
2023-03-04T13:32:00.624Z,57.91
2023-03-04T13:34:47.779Z,57.49
2023-03-04T13:37:32.621Z,58.01
2023-03-04T13:40:33.081Z,58.19
2023-03-04T13:43:29.935Z,59.22
2023-03-04T13:45:57.693Z,60.10
2023-03-04T13:48:29.991Z,61.17
2023-03-04T13:50:58.933Z,60.48
2023-03-04T13:53:44.207Z,60.14
2023-03-04T13:56:22.172Z,59.56
2023-03-04T13:58:52.093Z,58.87
2023-03-04T14:01:31.778Z,58.56
2023-03-04T14:04:00.222Z,57.50
2023-03-04T14:06:30.458Z,57.03
2023-03-04T14:08:59.681Z,57.21
2023-03-04T14:11:31.511Z,56.73
2023-03-04T14:14:04.709Z,56.29
2023-03-04T14:16:39.242Z,56.52
2023-03-04T14:19:08.926Z,56.20
2023-03-04T14:21:37.764Z,56.14
2023-03-04T14:24:13.033Z,56.40
2023-03-04T14:26:40.788Z,57.34
2023-03-04T14:29:22.668Z,57.98
2023-03-04T14:31:51.093Z,58.77
2023-03-04T14:34:26.228Z,59.09
2023-03-04T14:36:54.380Z,59.56
2023-03-04T14:39:26.935Z,59.77
2023-03-04T14:42:00.823Z,60.26
2023-03-04T14:44:36.065Z,61.02
2023-03-04T14:47:14.928Z,61.08
2023-03-04T14:49:42.771Z,61.22
2023-03-04T14:52:30.909Z,62.21
2023-03-04T14:55:11.027Z,62.66
2023-03-04T14:57:38.816Z,62.66
2023-03-04T15:00:18.803Z,63.44
2023-03-04T15:02:50.869Z,63.27
2023-03-04T15:05:25.846Z,63.41
2023-03-04T15:07:57.132Z,63.25
2023-03-04T15:10:29.446Z,62.64
2023-03-04T15:13:00.029Z,61.24
2023-03-04T15:15:43.657Z,60.83
2023-03-04T15:18:26.206Z,59.20
2023-03-04T15:20:55.970Z,58.92
2023-03-04T15:23:23.917Z,58.84
2023-03-04T15:25:58.221Z,59.81
2023-03-04T15:28:27.585Z,59.71
2023-03-04T15:30:55.561Z,60.07
2023-03-04T15:33:23.375Z,60.08
2023-03-04T15:35:55.053Z,60.13
2023-03-04T15:38:23.494Z,60.53
2023-03-04T15:40:54.316Z,60.65
2023-03-04T15:43:24.185Z,61.11
2023-03-04T15:45:53.102Z,61.32
2023-03-04T15:48:21.646Z,61.64
2023-03-04T15:50:52.317Z,60.71
2023-03-04T15:53:27.088Z,60.92
2023-03-04T15:55:55.293Z,61.25
2023-03-04T15:58:24.537Z,61.43
2023-03-04T16:00:52.406Z,61.10
2023-03-04T16:03:21.648Z,61.12
2023-03-04T16:05:52.528Z,60.65
2023-03-04T16:08:22.379Z,61.31
2023-03-04T16:10:50.152Z,60.97
2023-03-04T16:13:19.753Z,60.95
2023-03-04T16:15:49.727Z,60.93
2023-03-04T16:18:18.166Z,60.44
2023-03-04T16:20:48.502Z,60.33
2023-03-04T16:23:19.644Z,60.12
2023-03-04T16:25:49.158Z,59.15
2023-03-04T16:28:16.857Z,59.15
2023-03-04T16:30:44.666Z,59.94
2023-03-04T16:33:15.048Z,58.81
2023-03-04T16:35:43.990Z,59.28
2023-03-04T16:38:21.715Z,58.82
2023-03-04T16:40:49.632Z,59.32
2023-03-04T16:43:17.334Z,58.86
2023-03-04T16:45:45.380Z,58.61
2023-03-04T16:48:14.458Z,59.02
2023-03-04T16:50:42.683Z,58.71
2023-03-04T16:53:24.648Z,58.38
2023-03-04T16:55:52.684Z,59.06
2023-03-04T16:58:20.422Z,58.89
2023-03-04T17:00:48.238Z,59.01
2023-03-04T17:03:17.325Z,58.34
2023-03-04T17:05:45.338Z,58.13
2023-03-04T17:08:13.017Z,58.61
2023-03-04T17:10:40.889Z,58.45
2023-03-04T17:13:09.003Z,57.95
2023-03-04T17:15:36.790Z,58.79
2023-03-04T17:18:04.896Z,58.46
2023-03-04T17:20:33.992Z,58.42
2023-03-04T17:23:01.848Z,57.89
2023-03-04T17:25:29.668Z,57.64
2023-03-04T17:27:57.413Z,57.67
2023-03-04T17:30:25.137Z,57.37
2023-03-04T17:32:52.891Z,57.73
2023-03-04T17:35:21.202Z,56.91
2023-03-04T17:37:50.690Z,57.77
2023-03-04T17:40:18.567Z,57.35
2023-03-04T17:42:46.307Z,56.79
2023-03-04T17:45:14.007Z,56.85
2023-03-04T17:47:42.106Z,57.66
2023-03-04T17:50:11.163Z,57.53
2023-03-04T17:52:38.995Z,57.36
2023-03-04T17:55:08.876Z,56.91
2023-03-04T17:57:38.336Z,56.86
2023-03-04T18:00:07.400Z,57.07
2023-03-04T18:02:35.092Z,57.70
2023-03-04T18:05:05.671Z,56.97
2023-03-04T18:07:33.441Z,56.60
2023-03-04T18:10:01.189Z,56.93
2023-03-04T18:12:30.500Z,56.77
2023-03-04T18:14:58.393Z,57.14
2023-03-04T18:17:26.527Z,57.33
2023-03-04T18:19:55.233Z,56.70
2023-03-04T18:22:22.989Z,57.14
2023-03-04T18:24:50.700Z,57.02
2023-03-04T18:27:18.450Z,56.61
2023-03-04T18:29:47.527Z,56.59
2023-03-04T18:32:15.422Z,57.09
2023-03-04T18:34:43.306Z,56.84
2023-03-04T18:37:11.004Z,56.72
2023-03-04T18:39:38.891Z,56.65
2023-03-04T18:42:06.725Z,56.73
2023-03-04T18:44:34.470Z,56.54
2023-03-04T18:47:03.841Z,56.85
2023-03-04T18:49:31.628Z,56.54
2023-03-04T18:51:59.336Z,55.88
2023-03-04T18:54:27.070Z,55.40
2023-03-04T18:56:58.184Z,56.01
2023-03-04T18:59:31.425Z,55.69
2023-03-04T19:02:03.121Z,55.62
2023-03-04T19:04:32.660Z,56.24
2023-03-04T19:07:00.703Z,55.30
2023-03-04T19:09:28.748Z,55.62
2023-03-04T19:11:56.492Z,56.55
2023-03-04T19:14:24.257Z,56.00
2023-03-04T19:16:52.050Z,55.87
2023-03-04T19:19:19.800Z,55.51
2023-03-04T19:21:48.955Z,55.56
2023-03-04T19:24:16.800Z,55.59
2023-03-04T19:26:44.549Z,55.52
2023-03-04T19:29:12.458Z,55.10
2023-03-04T19:31:41.806Z,54.40
2023-03-04T19:34:09.559Z,54.85
2023-03-04T19:36:37.304Z,54.44
2023-03-04T19:39:06.913Z,54.86
2023-03-04T19:41:34.668Z,55.00
2023-03-04T19:44:02.576Z,55.37
2023-03-04T19:46:32.238Z,55.34
2023-03-04T19:48:59.999Z,55.21
2023-03-04T19:51:29.067Z,55.18
2023-03-04T19:53:57.166Z,55.50
2023-03-04T19:56:26.499Z,54.67
2023-03-04T19:58:55.042Z,55.75
2023-03-04T20:01:27.834Z,54.92
2023-03-04T20:03:55.918Z,55.29
2023-03-04T20:06:23.881Z,56.40
2023-03-04T20:08:52.177Z,56.50
2023-03-04T20:11:20.211Z,55.72
2023-03-04T20:13:49.372Z,56.65
2023-03-04T20:16:17.208Z,56.76
2023-03-04T20:18:45.032Z,56.27
2023-03-04T20:21:14.089Z,56.34
2023-03-04T20:23:41.836Z,56.47
2023-03-04T20:26:10.400Z,56.92
2023-03-04T20:28:38.190Z,57.08
2023-03-04T20:31:18.513Z,56.61
2023-03-04T20:33:48.586Z,57.67
2023-03-04T20:36:16.433Z,57.36
2023-03-04T20:38:44.474Z,57.32
2023-03-04T20:41:12.352Z,57.44
2023-03-04T20:43:41.410Z,57.29
2023-03-04T20:46:36.921Z,58.07
2023-03-04T20:49:07.627Z,57.96
2023-03-04T20:51:36.270Z,57.06
2023-03-04T20:54:04.795Z,57.29
2023-03-04T20:56:33.924Z,57.32
2023-03-04T20:59:03.682Z,57.77
2023-03-04T21:01:33.057Z,57.42
2023-03-04T21:04:02.619Z,57.25
2023-03-04T21:06:30.493Z,57.12
2023-03-04T21:09:01.151Z,57.71
2023-03-04T21:11:31.292Z,57.13
2023-03-04T21:13:59.059Z,57.03
2023-03-04T21:16:30.199Z,57.51
2023-03-04T21:19:00.024Z,57.60
2023-03-04T21:21:29.702Z,57.30
2023-03-04T21:23:58.963Z,57.44
2023-03-04T21:26:26.932Z,57.75
2023-03-04T21:28:56.329Z,57.35
2023-03-04T21:31:26.824Z,56.97
2023-03-04T21:33:56.172Z,57.36
2023-03-04T21:36:25.272Z,56.44
2023-03-04T21:38:54.260Z,56.64
2023-03-04T21:41:24.554Z,56.64
2023-03-04T21:43:52.971Z,57.03
2023-03-04T21:46:20.753Z,56.69
2023-03-04T21:48:48.492Z,56.92
2023-03-04T21:51:17.734Z,56.51
2023-03-04T21:53:46.900Z,56.78
2023-03-04T21:56:15.609Z,56.66
2023-03-04T21:58:43.354Z,56.68
2023-03-04T22:01:12.623Z,56.88
2023-03-04T22:03:40.546Z,56.54
2023-03-04T22:06:09.797Z,56.20
2023-03-04T22:08:38.353Z,56.05
2023-03-04T22:11:09.090Z,56.21
2023-03-04T22:13:37.306Z,56.59
2023-03-04T22:16:06.597Z,56.13
2023-03-04T22:18:34.866Z,55.83
2023-03-04T22:21:04.969Z,56.38
2023-03-04T22:23:33.535Z,55.63
2023-03-04T22:26:03.464Z,56.61
2023-03-04T22:28:33.146Z,56.26
2023-03-04T22:31:01.942Z,56.46
2023-03-04T22:33:31.565Z,56.18
2023-03-04T22:35:59.848Z,55.86
2023-03-04T22:38:27.612Z,55.40
2023-03-04T22:40:55.334Z,56.15
2023-03-04T22:43:23.031Z,55.91
2023-03-04T22:45:52.209Z,56.34
2023-03-04T22:48:19.958Z,55.71
2023-03-04T22:50:47.736Z,55.42
2023-03-04T22:53:15.434Z,56.15
2023-03-04T22:55:43.104Z,56.12
2023-03-04T22:58:10.982Z,55.33
2023-03-04T23:00:39.067Z,56.17
2023-03-04T23:03:08.648Z,55.57
2023-03-04T23:05:36.503Z,55.49
2023-03-04T23:08:04.234Z,55.25
2023-03-04T23:10:32.023Z,55.82
2023-03-04T23:12:59.993Z,55.46
2023-03-04T23:15:27.965Z,55.46
2023-03-04T23:17:55.678Z,56.02
2023-03-04T23:20:24.810Z,55.44
2023-03-04T23:22:52.608Z,55.94
2023-03-04T23:25:20.562Z,55.34
2023-03-04T23:27:48.318Z,55.70
2023-03-04T23:30:17.614Z,55.71
2023-03-04T23:32:45.763Z,55.37
2023-03-04T23:35:13.556Z,55.63
2023-03-04T23:37:42.621Z,55.60
2023-03-04T23:40:12.105Z,55.97
2023-03-04T23:42:40.897Z,55.98
2023-03-04T23:45:09.652Z,55.29
2023-03-04T23:47:37.394Z,55.88
2023-03-04T23:50:08.555Z,55.86
2023-03-04T23:52:36.440Z,55.88
2023-03-04T23:55:06.415Z,56.21
2023-03-04T23:57:34.157Z,55.92
